Time;durP1;ratioP1;P1;durP2;ratioP2;P2;SDS_P1;SDS_P2;PMS_P1;PMS_P2;Temp;Humidity;BMP_temperature;BMP_pressure;BME280_temperature;BME280_humidity;BME280_pressure;Samples;Min_cycle;Max_cycle;Signal;HPM_P1;HPM_P2
2021/12/28 00:01:11;;;;;;;44.50;24.30;;;3.40;99.90;;;;;;5032610;28;20127;-84
2021/12/28 00:03:39;;;;;;;40.90;22.38;;;3.40;99.90;;;;;;5030350;28;20048;-84
2021/12/28 00:06:05;;;;;;;41.38;23.58;;;3.40;99.90;;;;;;5015060;28;20102;-83
2021/12/28 00:08:33;;;;;;;38.40;22.23;;;3.50;99.90;;;;;;5013664;28;20112;-84
2021/12/28 00:10:59;;;;;;;39.20;23.40;;;3.50;99.90;;;;;;5047740;28;20045;-83
2021/12/28 00:13:27;;;;;;;33.97;20.27;;;3.50;99.90;;;;;;5047556;28;20038;-83
2021/12/28 00:16:13;;;;;;;42.53;24.42;;;3.50;99.90;;;;;;5031253;28;20250;-83
2021/12/28 00:18:38;;;;;;;37.70;21.27;;;3.50;99.90;;;;;;5031321;28;20045;-81
2021/12/28 00:21:06;;;;;;;40.97;23.23;;;3.50;99.90;;;;;;5047451;28;20042;-83
2021/12/28 00:23:39;;;;;;;38.97;22.40;;;3.50;99.90;;;;;;5013985;28;20044;-83
2021/12/28 00:26:07;;;;;;;42.22;21.88;;;3.50;99.90;;;;;;5031280;28;20055;-84
2021/12/28 00:28:34;;;;;;;42.20;23.10;;;3.60;99.90;;;;;;5030891;28;20041;-83
2021/12/28 00:30:59;;;;;;;54.10;26.67;;;3.50;99.90;;;;;;5047613;28;20047;-83
2021/12/28 00:33:26;;;;;;;49.30;26.75;;;3.70;99.90;;;;;;5047290;28;20551;-84
2021/12/28 00:35:53;;;;;;;69.47;29.58;;;3.60;99.90;;;;;;5030946;28;20084;-81
2021/12/28 00:38:22;;;;;;;78.47;31.35;;;3.60;99.90;;;;;;4982162;28;20457;-82
2021/12/28 00:40:50;;;;;;;77.50;31.33;;;3.60;99.90;;;;;;5046518;28;20439;-83
2021/12/28 00:43:17;;;;;;;71.22;31.60;;;3.60;99.90;;;;;;5047833;28;20499;-84
2021/12/28 00:45:43;;;;;;;85.50;34.55;;;3.60;99.90;;;;;;5031391;28;20067;-83
2021/12/28 00:48:08;;;;;;;73.70;32.30;;;3.70;99.90;;;;;;5030831;28;20046;-83
2021/12/28 00:50:35;;;;;;;88.28;34.10;;;3.60;99.90;;;;;;5014887;28;20052;-83
2021/12/28 00:53:01;;;;;;;73.15;33.10;;;3.60;99.90;;;;;;5014624;28;20061;-83
2021/12/28 00:55:27;;;;;;;66.07;29.13;;;3.60;99.90;;;;;;5031182;28;20046;-83
2021/12/28 00:57:53;;;;;;;77.70;32.72;;;3.60;99.90;;;;;;5031146;28;20496;-81
2021/12/28 01:00:22;;;;;;;76.10;33.38;;;3.60;99.90;;;;;;5031109;28;20045;-84
2021/12/28 01:02:49;;;;;;;76.35;32.78;;;3.60;99.90;;;;;;5015024;28;20412;-81
2021/12/28 01:05:16;;;;;;;78.22;33.08;;;3.60;99.90;;;;;;4998453;28;20046;-83
2021/12/28 01:07:42;;;;;;;76.03;32.70;;;3.70;99.90;;;;;;5015014;28;20042;-81
2021/12/28 01:10:11;;;;;;;83.57;34.67;;;3.70;99.90;;;;;;5014573;28;20152;-83
2021/12/28 01:12:37;;;;;;;87.47;33.15;;;3.70;99.90;;;;;;5031109;28;20103;-81
2021/12/28 01:15:06;;;;;;;75.57;33.00;;;3.70;99.90;;;;;;5031196;28;20045;-83
2021/12/28 01:17:33;;;;;;;124.20;39.28;;;3.70;99.90;;;;;;5030970;28;20068;-83
2021/12/28 01:19:59;;;;;;;112.13;39.38;;;3.70;99.90;;;;;;5031118;28;20511;-81
2021/12/28 01:22:25;;;;;;;118.95;38.40;;;3.70;99.90;;;;;;5034143;28;20424;-83
2021/12/28 01:24:51;;;;;;;121.20;42.15;;;3.80;99.90;;;;;;5034885;28;20045;-82
2021/12/28 01:27:16;;;;;;;98.68;37.25;;;3.80;99.90;;;;;;5018623;28;20446;-81
2021/12/28 01:29:42;;;;;;;143.50;46.33;;;4.10;99.90;;;;;;5034723;28;20084;-83
2021/12/28 01:32:08;;;;;;;147.18;44.92;;;3.90;99.90;;;;;;5018106;28;20041;-83
2021/12/28 01:34:35;;;;;;;156.82;46.53;;;3.90;99.90;;;;;;5001943;28;20095;-81
2021/12/28 01:37:01;;;;;;;177.30;50.13;;;4.00;99.90;;;;;;5034576;28;20124;-83
2021/12/28 01:39:27;;;;;;;162.63;46.63;;;4.00;99.90;;;;;;5034248;28;20128;-80
2021/12/28 01:41:53;;;;;;;186.93;49.00;;;4.10;99.90;;;;;;5034308;28;20420;-81
2021/12/28 01:44:18;;;;;;;141.82;43.55;;;4.10;99.90;;;;;;5018177;28;20043;-80
2021/12/28 01:46:44;;;;;;;170.38;48.08;;;4.10;99.90;;;;;;5034321;28;20088;-82
2021/12/28 01:49:11;;;;;;;162.73;45.78;;;4.20;99.90;;;;;;5017659;28;20042;-83
2021/12/28 01:51:37;;;;;;;210.27;51.13;;;4.30;99.90;;;;;;5034648;28;20538;-80
2021/12/28 01:54:04;;;;;;;185.30;48.78;;;4.30;99.90;;;;;;5034170;28;20064;-83
2021/12/28 01:56:38;;;;;;;233.43;54.63;;;4.30;99.90;;;;;;5017901;28;20060;-80
2021/12/28 01:59:05;;;;;;;224.00;52.58;;;4.40;99.90;;;;;;5017546;28;20052;-83
2021/12/28 02:01:31;;;;;;;259.05;57.78;;;4.40;99.90;;;;;;5017644;28;20049;-83
2021/12/28 02:03:56;;;;;;;344.70;66.85;;;4.40;99.90;;;;;;5034061;28;20048;-80
2021/12/28 02:06:26;;;;;;;342.83;61.92;;;4.50;99.90;;;;;;5001191;28;20092;-82
2021/12/28 02:08:53;;;;;;;232.02;51.85;;;4.50;99.90;;;;;;5033913;28;20048;-82
2021/12/28 02:11:19;;;;;;;320.95;60.90;;;4.50;99.90;;;;;;5033857;28;20049;-80
2021/12/28 02:13:46;;;;;;;328.20;64.57;;;4.60;99.90;;;;;;5033807;28;20107;-83
2021/12/28 02:16:12;;;;;;;404.55;73.85;;;4.60;99.90;;;;;;5033785;28;20077;-82
2021/12/28 02:18:38;;;;;;;368.13;64.20;;;4.60;99.90;;;;;;5033897;28;20092;-80
2021/12/28 02:21:06;;;;;;;427.02;72.75;;;4.70;99.90;;;;;;5033642;28;20045;-80
2021/12/28 02:23:32;;;;;;;399.02;69.70;;;4.70;99.90;;;;;;5033549;28;20050;-80
2021/12/28 02:25:58;;;;;;;466.48;76.57;;;4.70;99.90;;;;;;5033917;28;20045;-83
2021/12/28 02:28:24;;;;;;;493.95;75.90;;;4.90;99.90;;;;;;5017070;28;20049;-82
2021/12/28 02:30:52;;;;;;;474.90;77.00;;;4.80;99.90;;;;;;5033441;28;20052;-81
2021/12/28 02:33:20;;;;;;;539.30;78.65;;;4.80;99.90;;;;;;5033187;28;20080;-81
2021/12/28 02:35:46;;;;;;;573.95;86.30;;;4.90;99.90;;;;;;5033476;28;20092;-80
2021/12/28 02:38:13;;;;;;;569.33;81.47;;;5.00;99.90;;;;;;5017102;28;20107;-83
2021/12/28 02:40:41;;;;;;;741.17;102.55;;;4.90;99.90;;;;;;5033198;28;20055;-82
2021/12/28 02:43:09;;;;;;;676.38;91.57;;;4.90;99.90;;;;;;5016996;28;20489;-83
2021/12/28 02:45:38;;;;;;;532.40;77.47;;;4.90;99.90;;;;;;5033526;28;20056;-83
2021/12/28 02:48:06;;;;;;;668.20;90.43;;;4.90;99.90;;;;;;5016813;28;20045;-83
2021/12/28 02:50:41;;;;;;;644.25;90.40;;;5.00;99.90;;;;;;5033064;28;20079;-83
2021/12/28 02:53:08;;;;;;;614.53;86.68;;;5.00;99.90;;;;;;5016549;28;20053;-81
2021/12/28 02:55:35;;;;;;;703.28;94.78;;;5.00;99.90;;;;;;5033409;28;20120;-83
2021/12/28 02:58:07;;;;;;;644.58;88.95;;;5.00;99.90;;;;;;5033082;28;20045;-80
2021/12/28 03:00:36;;;;;;;732.78;100.35;;;5.00;99.90;;;;;;5016382;28;20175;-82
2021/12/28 03:03:12;;;;;;;708.63;97.57;;;5.10;99.90;;;;;;5033282;28;20046;-80
2021/12/28 03:05:40;;;;;;;756.05;96.88;;;5.10;99.90;;;;;;5033215;28;20429;-83
2021/12/28 03:08:07;;;;;;;542.60;78.07;;;5.10;99.90;;;;;;5032819;28;20049;-83
2021/12/28 03:10:33;;;;;;;580.50;86.90;;;5.20;99.90;;;;;;5032710;28;20037;-82
2021/12/28 03:12:59;;;;;;;846.10;102.13;;;5.20;99.90;;;;;;5032989;28;20396;-82
2021/12/28 03:15:25;;;;;;;676.47;90.43;;;5.20;99.90;;;;;;5032635;28;20049;-80
2021/12/28 03:17:50;;;;;;;758.95;98.90;;;5.20;99.90;;;;;;5016298;28;20558;-80
2021/12/28 03:20:18;;;;;;;607.05;82.57;;;5.20;99.90;;;;;;4999633;28;20052;-80
2021/12/28 03:22:44;;;;;;;705.35;93.68;;;5.30;99.90;;;;;;5032487;28;20091;-80
2021/12/28 03:25:10;;;;;;;1032.47;110.85;;;5.30;99.90;;;;;;5000084;28;20399;-80
2021/12/28 03:27:37;;;;;;;970.03;108.97;;;5.30;99.90;;;;;;5032503;28;20052;-83
2021/12/28 03:30:06;;;;;;;1041.05;111.32;;;5.30;99.90;;;;;;5032785;28;20037;-83
2021/12/28 03:32:32;;;;;;;813.42;99.20;;;5.30;99.90;;;;;;5032794;28;20041;-83
2021/12/28 03:34:58;;;;;;;669.90;86.60;;;5.30;99.90;;;;;;5015652;28;20053;-80
2021/12/28 03:37:24;;;;;;;801.45;97.03;;;5.30;99.90;;;;;;5032333;28;20046;-83
2021/12/28 03:39:49;;;;;;;1011.78;109.32;;;5.40;99.90;;;;;;4999541;28;20045;-79
2021/12/28 03:42:15;;;;;;;962.58;104.07;;;5.40;99.90;;;;;;5032258;28;20049;-81
2021/12/28 03:44:41;;;;;;;745.05;91.35;;;5.30;99.90;;;;;;5031807;28;20045;-82
2021/12/28 03:47:07;;;;;;;749.60;91.97;;;5.40;99.90;;;;;;5015650;28;20049;-83
2021/12/28 03:49:33;;;;;;;834.25;101.63;;;5.50;99.90;;;;;;5032425;28;20199;-83
2021/12/28 03:52:00;;;;;;;1122.07;116.22;;;5.40;99.90;;;;;;5015665;28;20128;-80
2021/12/28 03:54:25;;;;;;;1009.55;109.00;;;5.40;99.90;;;;;;5031679;28;20061;-80
2021/12/28 03:56:51;;;;;;;1012.28;108.90;;;5.40;99.90;;;;;;5015826;28;20049;-82
2021/12/28 03:59:17;;;;;;;847.75;103.95;;;5.40;99.90;;;;;;5015757;28;20064;-79
2021/12/28 04:01:43;;;;;;;914.97;105.13;;;5.40;99.90;;;;;;5031859;28;20041;-82
2021/12/28 04:04:09;;;;;;;951.47;112.28;;;5.40;99.90;;;;;;5031977;28;20052;-80
2021/12/28 04:06:35;;;;;;;1038.90;104.78;;;5.40;99.90;;;;;;4999104;28;20076;-80
2021/12/28 04:09:03;;;;;;;893.35;99.80;;;5.40;99.90;;;;;;5031806;28;20052;-83
2021/12/28 04:11:29;;;;;;;775.15;96.78;;;5.40;99.90;;;;;;5032114;28;20504;-82
2021/12/28 04:14:04;;;;;;;721.08;93.90;;;5.40;99.90;;;;;;5031973;28;20041;-80
2021/12/28 04:16:31;;;;;;;773.20;93.00;;;5.50;99.90;;;;;;5031818;28;20046;-80
2021/12/28 04:18:57;;;;;;;886.78;100.60;;;5.40;99.90;;;;;;4998874;28;20052;-82
2021/12/28 04:21:23;;;;;;;952.85;110.32;;;5.30;99.90;;;;;;5031606;28;20103;-81
2021/12/28 04:23:50;;;;;;;956.47;103.05;;;5.50;99.90;;;;;;5015405;28;20412;-82
2021/12/28 04:26:16;;;;;;;884.75;101.20;;;5.30;99.90;;;;;;5015170;28;20045;-81
2021/12/28 04:28:43;;;;;;;1167.40;112.45;;;5.40;99.90;;;;;;5015402;28;20515;-83
2021/12/28 04:31:09;;;;;;;894.90;99.20;;;5.30;99.90;;;;;;5015054;28;20041;-82
2021/12/28 04:33:37;;;;;;;1106.78;113.55;;;5.30;99.90;;;;;;4998848;28;20094;-82
2021/12/28 04:36:06;;;;;;;1331.70;120.20;;;5.30;99.90;;;;;;5031487;28;20049;-83
2021/12/28 04:38:32;;;;;;;1178.70;111.05;;;5.30;99.90;;;;;;5015019;28;20083;-83
2021/12/28 04:40:58;;;;;;;969.58;106.60;;;5.40;99.90;;;;;;4998533;28;20511;-80
2021/12/28 04:43:24;;;;;;;1158.70;108.13;;;5.30;99.90;;;;;;5031678;28;20053;-82
2021/12/28 04:45:50;;;;;;;772.70;91.85;;;5.30;99.90;;;;;;5014987;28;20052;-82
2021/12/28 04:48:15;;;;;;;1082.47;108.35;;;5.40;99.90;;;;;;5031292;28;20056;-82
2021/12/28 04:50:42;;;;;;;990.00;101.28;;;5.30;99.90;;;;;;5031615;28;20493;-80
2021/12/28 04:53:11;;;;;;;1197.75;113.30;;;5.30;99.90;;;;;;5014858;28;21123;-80
2021/12/28 04:55:42;;;;;;;882.55;100.45;;;5.40;99.90;;;;;;5033016;28;20161;-80
2021/12/28 04:58:08;;;;;;;1035.63;110.90;;;5.40;99.90;;;;;;5018846;28;20042;-79
2021/12/28 05:00:35;;;;;;;857.80;94.57;;;5.40;99.90;;;;;;5035267;28;20107;-83
2021/12/28 05:03:01;;;;;;;1176.75;108.60;;;5.40;99.90;;;;;;5035214;28;20053;-82
2021/12/28 05:05:26;;;;;;;804.05;94.50;;;5.40;99.90;;;;;;5018771;28;20124;-79
2021/12/28 05:07:53;;;;;;;827.78;94.85;;;5.40;99.90;;;;;;5035154;28;20129;-83
2021/12/28 05:10:19;;;;;;;940.78;100.18;;;5.40;99.90;;;;;;5035079;28;20052;-79
2021/12/28 05:12:45;;;;;;;619.15;82.18;;;5.40;99.90;;;;;;5034986;28;20041;-79
2021/12/28 05:15:11;;;;;;;732.20;94.00;;;5.50;99.90;;;;;;5034985;28;20048;-82
2021/12/28 05:17:38;;;;;;;810.33;92.38;;;5.50;99.90;;;;;;5034873;28;20052;-80
2021/12/28 05:20:06;;;;;;;693.40;87.75;;;5.50;99.90;;;;;;5034961;28;20056;-80
2021/12/28 05:22:31;;;;;;;763.08;92.15;;;5.50;99.90;;;;;;5034739;28;20046;-82
2021/12/28 05:24:57;;;;;;;437.50;70.80;;;5.50;99.90;;;;;;5034868;28;20042;-83
2021/12/28 05:27:23;;;;;;;561.08;81.85;;;5.60;99.90;;;;;;5002054;28;20580;-80
2021/12/28 05:29:49;;;;;;;488.60;72.90;;;5.60;99.90;;;;;;5018640;28;20065;-82
2021/12/28 05:32:17;;;;;;;468.50;71.90;;;5.60;99.90;;;;;;5018405;28;20041;-80
2021/12/28 05:34:43;;;;;;;496.90;77.40;;;5.60;99.90;;;;;;5034713;28;20049;-80
2021/12/28 05:37:09;;;;;;;458.73;75.78;;;5.60;99.90;;;;;;5018224;28;20048;-79
2021/12/28 05:39:35;;;;;;;524.33;79.38;;;5.60;99.90;;;;;;5018322;28;20048;-83
2021/12/28 05:42:02;;;;;;;452.60;74.68;;;5.60;99.90;;;;;;5034907;28;20045;-82
2021/12/28 05:44:28;;;;;;;412.90;72.80;;;5.60;99.90;;;;;;5034491;28;20075;-79
2021/12/28 05:46:55;;;;;;;287.40;60.58;;;5.70;99.90;;;;;;5002024;28;20231;-79
2021/12/28 05:49:24;;;;;;;373.85;69.35;;;5.60;99.90;;;;;;5034436;28;20085;-79
2021/12/28 05:51:50;;;;;;;431.95;72.63;;;5.70;99.90;;;;;;5018850;28;20103;-79
2021/12/28 05:54:17;;;;;;;364.83;67.25;;;5.60;99.90;;;;;;5017606;28;20061;-82
2021/12/28 05:56:43;;;;;;;361.60;70.55;;;5.60;99.90;;;;;;5034512;28;20512;-82
2021/12/28 05:59:09;;;;;;;419.75;70.93;;;5.50;99.90;;;;;;5034215;28;20412;-79
2021/12/28 06:01:35;;;;;;;414.08;70.03;;;5.50;99.90;;;;;;5017563;28;20045;-79
2021/12/28 06:04:01;;;;;;;424.42;74.82;;;5.60;99.90;;;;;;5034075;28;20083;-82
2021/12/28 06:06:27;;;;;;;336.70;64.78;;;5.40;99.90;;;;;;5017214;28;20049;-80
2021/12/28 06:08:53;;;;;;;293.75;58.47;;;5.30;99.90;;;;;;5000905;28;20042;-80
2021/12/28 06:11:19;;;;;;;325.55;62.13;;;5.40;99.90;;;;;;5034237;28;20606;-81
2021/12/28 06:13:45;;;;;;;315.67;62.78;;;5.30;99.90;;;;;;4985047;28;20081;-80
2021/12/28 06:16:11;;;;;;;315.08;64.28;;;5.30;99.90;;;;;;5017363;28;20049;-80
2021/12/28 06:18:37;;;;;;;269.50;55.75;;;5.30;99.90;;;;;;5033646;28;20042;-80
2021/12/28 06:21:04;;;;;;;286.40;57.75;;;5.20;99.90;;;;;;5033747;28;20045;-82
2021/12/28 06:23:30;;;;;;;291.08;59.92;;;5.20;99.90;;;;;;5033601;28;20049;-83
2021/12/28 06:25:56;;;;;;;283.33;58.50;;;5.20;99.90;;;;;;5017238;28;20045;-82
2021/12/28 06:28:22;;;;;;;304.25;59.65;;;5.10;99.90;;;;;;5017438;28;20049;-82
2021/12/28 06:30:49;;;;;;;335.02;62.83;;;5.10;99.90;;;;;;5033607;28;20037;-80
2021/12/28 06:33:15;;;;;;;277.05;58.28;;;5.10;99.90;;;;;;5033407;28;20040;-80
2021/12/28 06:35:41;;;;;;;289.05;57.20;;;5.10;99.90;;;;;;5017067;28;20037;-83
2021/12/28 06:38:07;;;;;;;343.63;63.28;;;5.00;99.90;;;;;;5000710;28;20053;-80
2021/12/28 06:40:33;;;;;;;321.52;60.25;;;5.00;99.90;;;;;;5033274;28;20049;-80
2021/12/28 06:42:59;;;;;;;237.40;52.35;;;5.10;99.90;;;;;;5016918;28;20054;-83
2021/12/28 06:45:26;;;;;;;357.60;62.55;;;4.90;99.90;;;;;;5033258;28;20041;-80
2021/12/28 06:47:51;;;;;;;276.83;55.67;;;4.90;99.90;;;;;;5016783;28;20042;-80
2021/12/28 06:50:18;;;;;;;377.88;64.35;;;4.90;99.90;;;;;;5033314;28;20128;-83
2021/12/28 06:52:44;;;;;;;324.35;59.22;;;4.90;99.90;;;;;;5033052;28;20119;-80
2021/12/28 06:55:10;;;;;;;321.70;58.60;;;4.80;99.90;;;;;;5016503;28;20050;-79
2021/12/28 06:57:36;;;;;;;290.48;55.53;;;4.80;99.90;;;;;;5000711;28;20381;-83
2021/12/28 07:00:07;;;;;;;317.50;54.55;;;4.80;99.90;;;;;;5033307;28;20400;-83
2021/12/28 07:02:33;;;;;;;264.65;51.50;;;4.80;99.90;;;;;;5016842;28;20377;-79
2021/12/28 07:04:58;;;;;;;329.23;57.95;;;4.70;99.90;;;;;;5016569;28;20118;-80
2021/12/28 07:07:24;;;;;;;253.98;53.30;;;4.60;99.90;;;;;;5016567;28;20492;-80
2021/12/28 07:09:50;;;;;;;295.73;53.63;;;4.50;99.90;;;;;;5033126;28;20045;-83
2021/12/28 07:12:15;;;;;;;233.05;50.65;;;4.50;99.90;;;;;;5016632;28;20045;-81
2021/12/28 07:14:41;;;;;;;223.10;47.90;;;4.40;99.90;;;;;;5016686;28;20049;-80
2021/12/28 07:17:07;;;;;;;202.45;45.45;;;4.40;99.90;;;;;;5032694;28;20052;-81
2021/12/28 07:19:32;;;;;;;217.32;45.78;;;4.30;99.90;;;;;;5031904;28;20056;-83
2021/12/28 07:21:59;;;;;;;257.50;49.58;;;4.20;99.90;;;;;;5032676;28;20053;-80
2021/12/28 07:24:25;;;;;;;207.48;47.95;;;4.20;99.90;;;;;;5016260;28;20072;-83
2021/12/28 07:26:50;;;;;;;253.95;51.65;;;4.20;99.90;;;;;;4999718;28;20045;-79
2021/12/28 07:29:16;;;;;;;217.52;46.13;;;4.10;99.90;;;;;;5032349;28;20455;-79
2021/12/28 07:31:42;;;;;;;207.02;47.50;;;4.10;99.90;;;;;;5032445;28;20408;-79
2021/12/28 07:34:08;;;;;;;227.80;46.20;;;4.10;99.90;;;;;;5015978;28;20407;-79
2021/12/28 07:36:34;;;;;;;220.45;45.90;;;4.10;99.90;;;;;;5032409;28;20424;-83
2021/12/28 07:39:00;;;;;;;174.60;41.13;;;4.10;99.90;;;;;;5016049;28;20037;-83
2021/12/28 07:41:26;;;;;;;182.23;43.88;;;4.10;99.90;;;;;;5015688;28;20053;-83
2021/12/28 07:43:51;;;;;;;184.45;42.22;;;4.20;99.90;;;;;;5015717;28;20128;-79
2021/12/28 07:46:17;;;;;;;177.07;42.60;;;4.20;99.90;;;;;;5015856;28;20045;-83
2021/12/28 07:48:43;;;;;;;195.75;44.22;;;4.20;99.90;;;;;;5015691;28;20557;-79
2021/12/28 07:51:09;;;;;;;207.93;46.20;;;4.30;99.90;;;;;;5032316;28;20046;-79
2021/12/28 07:53:35;;;;;;;169.25;40.72;;;4.30;99.90;;;;;;5015580;28;20053;-79
2021/12/28 07:56:02;;;;;;;176.40;43.00;;;4.20;99.90;;;;;;5032036;28;20049;-81
2021/12/28 07:58:28;;;;;;;185.98;42.13;;;4.20;99.90;;;;;;5015715;28;20507;-83
2021/12/28 08:00:55;;;;;;;172.05;40.78;;;4.20;99.90;;;;;;5015630;28;20523;-79
2021/12/28 08:03:22;;;;;;;168.80;41.03;;;4.20;99.90;;;;;;5031742;28;20089;-79
2021/12/28 08:05:49;;;;;;;151.90;37.65;;;4.20;99.90;;;;;;5015757;28;20167;-83
2021/12/28 08:08:16;;;;;;;154.48;37.67;;;4.30;99.90;;;;;;5015353;28;20127;-82
2021/12/28 08:10:42;;;;;;;178.20;40.80;;;4.30;99.90;;;;;;5031840;28;20041;-83
2021/12/28 08:13:07;;;;;;;150.70;38.30;;;4.40;99.90;;;;;;4999032;28;20056;-83
2021/12/28 08:15:33;;;;;;;137.07;36.40;;;4.50;99.90;;;;;;5015288;28;20095;-82
2021/12/28 08:17:59;;;;;;;131.50;35.38;;;4.60;99.90;;;;;;5015164;28;20053;-80
2021/12/28 08:20:25;;;;;;;107.78;31.15;;;4.70;99.90;;;;;;5015397;28;20496;-79
2021/12/28 08:22:51;;;;;;;112.20;32.95;;;4.80;99.90;;;;;;5031739;28;20070;-83
2021/12/28 08:25:19;;;;;;;95.95;31.65;;;4.90;99.90;;;;;;4998859;28;20401;-82
2021/12/28 08:27:47;;;;;;;90.18;30.08;;;5.00;99.90;;;;;;5031501;28;20124;-80
2021/12/28 08:30:13;;;;;;;87.20;28.70;;;5.20;99.90;;;;;;5015168;28;20088;-82
2021/12/28 08:32:40;;;;;;;70.50;25.77;;;5.20;99.90;;;;;;5031522;28;20056;-80
2021/12/28 08:35:06;;;;;;;87.43;27.35;;;5.30;99.90;;;;;;5031412;28;20067;-79
2021/12/28 08:37:33;;;;;;;80.20;27.17;;;5.30;99.90;;;;;;5031730;28;20076;-82
2021/12/28 08:39:59;;;;;;;64.70;25.90;;;5.40;99.90;;;;;;5014689;28;20055;-83
2021/12/28 08:42:25;;;;;;;66.32;23.63;;;5.40;99.90;;;;;;5031427;28;20091;-83
2021/12/28 08:44:51;;;;;;;65.65;24.85;;;5.50;99.90;;;;;;5031597;28;20487;-83
2021/12/28 08:47:18;;;;;;;78.43;26.02;;;5.50;99.90;;;;;;5015004;28;20049;-83
2021/12/28 08:49:44;;;;;;;65.43;23.30;;;5.50;99.90;;;;;;5031834;28;20061;-83
2021/12/28 08:52:10;;;;;;;69.40;25.15;;;5.60;99.90;;;;;;5014982;28;20041;-80
2021/12/28 08:54:35;;;;;;;79.75;27.45;;;5.60;99.90;;;;;;5014184;28;20526;-79
2021/12/28 08:57:02;;;;;;;72.85;26.13;;;5.60;99.90;;;;;;5046348;28;20041;-83
2021/12/28 08:59:28;;;;;;;53.78;21.60;;;5.60;99.90;;;;;;5046230;28;20099;-84
2021/12/28 09:01:57;;;;;;;70.22;23.42;;;5.70;99.90;;;;;;4996934;28;20045;-82
2021/12/28 09:04:23;;;;;;;57.90;22.55;;;5.70;99.90;;;;;;5029591;28;20045;-80
2021/12/28 09:06:49;;;;;;;60.90;22.27;;;6.10;99.90;;;;;;5012993;28;20048;-84
2021/12/28 09:09:15;;;;;;;72.18;22.70;;;5.80;99.90;;;;;;5028910;28;20045;-80
2021/12/28 09:11:42;;;;;;;78.70;24.85;;;5.90;99.90;;;;;;5043283;28;20120;-83
2021/12/28 09:14:08;;;;;;;72.15;25.65;;;5.90;99.90;;;;;;5045879;28;20499;-80
2021/12/28 09:16:34;;;;;;;56.78;21.33;;;6.00;99.90;;;;;;5043650;28;20124;-80
2021/12/28 09:19:00;;;;;;;53.75;21.52;;;6.00;99.90;;;;;;5045841;28;20547;-83
2021/12/28 09:21:26;;;;;;;56.08;20.20;;;6.00;99.90;;;;;;5029508;28;20041;-80
2021/12/28 09:23:52;;;;;;;50.58;20.75;;;6.10;99.90;;;;;;5045081;28;20038;-79
2021/12/28 09:26:18;;;;;;;56.85;22.63;;;6.20;99.90;;;;;;5029555;28;20044;-83
2021/12/28 09:28:44;;;;;;;58.28;23.98;;;6.30;99.90;;;;;;5029549;28;20056;-80
2021/12/28 09:31:09;;;;;;;49.00;21.40;;;6.40;99.90;;;;;;5012907;28;20045;-79
2021/12/28 09:33:35;;;;;;;42.45;17.77;;;6.50;99.90;;;;;;5012911;28;20100;-80
2021/12/28 09:36:02;;;;;;;35.83;15.77;;;6.50;99.90;;;;;;5013062;28;20581;-83
2021/12/28 09:38:28;;;;;;;36.95;13.88;;;6.60;99.90;;;;;;5028912;28;20040;-80
2021/12/28 09:40:54;;;;;;;40.20;15.25;;;6.60;99.90;;;;;;4996460;28;20504;-80
2021/12/28 09:43:20;;;;;;;41.53;16.35;;;6.60;99.90;;;;;;5031412;28;20043;-83
2021/12/28 09:45:46;;;;;;;41.45;15.90;;;6.70;99.90;;;;;;5016573;28;20046;-83
2021/12/28 09:48:12;;;;;;;45.22;16.83;;;6.60;99.90;;;;;;5049287;28;20034;-80
2021/12/28 09:50:40;;;;;;;36.92;15.15;;;6.60;99.90;;;;;;5015846;28;20397;-80
2021/12/28 09:53:08;;;;;;;39.97;15.32;;;6.70;99.90;;;;;;5016133;28;20466;-80
2021/12/28 09:55:34;;;;;;;43.53;16.63;;;6.60;99.90;;;;;;5032734;28;20045;-84
2021/12/28 09:58:00;;;;;;;42.88;16.33;;;6.60;99.90;;;;;;5049208;28;20072;-84
2021/12/28 10:00:27;;;;;;;48.42;17.13;;;6.60;99.90;;;;;;5032758;28;20414;-79
2021/12/28 10:02:53;;;;;;;35.67;15.27;;;6.70;99.90;;;;;;5016006;28;20443;-79
2021/12/28 10:05:23;;;;;;;40.80;18.45;;;6.70;99.90;;;;;;5032511;28;20049;-81
2021/12/28 10:08:02;;;;;;;34.45;14.50;;;6.70;99.90;;;;;;5049215;28;20072;-79
2021/12/28 10:10:35;;;;;;;34.03;13.68;;;6.70;99.90;;;;;;5033486;28;20047;-79
2021/12/28 10:13:04;;;;;;;34.50;13.38;;;6.70;99.90;;;;;;5032273;28;20124;-84
2021/12/28 10:15:33;;;;;;;37.05;13.98;;;6.70;99.90;;;;;;5049646;28;20092;-80
2021/12/28 10:18:03;;;;;;;41.33;14.32;;;6.70;99.90;;;;;;5049523;28;20049;-80
2021/12/28 10:20:32;;;;;;;31.27;13.88;;;6.80;99.90;;;;;;5049638;28;20459;-84
2021/12/28 10:23:02;;;;;;;30.77;11.90;;;6.80;99.90;;;;;;5016717;28;20562;-83
2021/12/28 10:25:35;;;;;;;25.73;12.73;;;6.90;99.90;;;;;;5017012;28;20404;-80
2021/12/28 10:28:05;;;;;;;24.45;10.57;;;6.80;99.90;;;;;;5034276;28;20060;-79
2021/12/28 10:30:41;;;;;;;35.97;12.48;;;6.80;99.90;;;;;;5050247;28;20077;-83
2021/12/28 10:33:13;;;;;;;31.67;11.88;;;6.90;99.90;;;;;;5017418;28;20037;-83
2021/12/28 10:35:46;;;;;;;23.85;10.68;;;6.90;99.90;;;;;;5033837;28;20404;-83
2021/12/28 10:38:16;;;;;;;28.63;11.15;;;6.90;99.90;;;;;;5033587;28;20050;-80
2021/12/28 10:40:45;;;;;;;26.55;11.27;;;7.00;99.90;;;;;;5033452;28;20045;-83
2021/12/28 10:43:17;;;;;;;30.98;14.05;;;6.90;99.90;;;;;;5033395;28;20052;-79
2021/12/28 10:45:49;;;;;;;28.35;11.48;;;6.90;99.90;;;;;;5033599;28;20049;-84
2021/12/28 10:48:19;;;;;;;37.05;13.18;;;7.00;99.90;;;;;;5049877;28;20037;-79
2021/12/28 10:50:51;;;;;;;30.83;13.95;;;7.00;99.90;;;;;;5033368;28;20054;-79
2021/12/28 10:53:32;;;;;;;41.80;14.40;;;7.00;99.90;;;;;;5032954;28;20048;-80
2021/12/28 10:55:59;;;;;;;31.88;11.98;;;6.90;99.90;;;;;;5033301;28;20184;-81
2021/12/28 10:58:47;;;;;;;31.25;14.60;;;6.90;99.90;;;;;;5049840;28;20069;-83
2021/12/28 11:01:25;;;;;;;37.65;14.68;;;6.90;99.90;;;;;;5016561;28;20049;-84
2021/12/28 11:04:09;;;;;;;38.88;14.85;;;6.90;99.90;;;;;;5016611;28;20056;-84
2021/12/28 11:06:47;;;;;;;35.75;14.88;;;6.90;99.90;;;;;;5049818;28;20046;-84
2021/12/28 11:09:17;;;;;;;32.92;13.73;;;6.90;99.90;;;;;;5033033;28;20052;-79
2021/12/28 11:11:43;;;;;;;30.80;13.32;;;6.90;99.90;;;;;;5016640;28;20112;-80
2021/12/28 11:14:18;;;;;;;42.00;17.10;;;7.00;99.90;;;;;;5032919;28;20179;-84
2021/12/28 11:16:55;;;;;;;36.65;15.88;;;6.90;99.90;;;;;;5049367;28;20049;-79
2021/12/28 11:19:34;;;;;;;39.92;16.00;;;6.90;99.90;;;;;;5016452;28;20034;-80
2021/12/28 11:22:07;;;;;;;36.17;14.93;;;6.90;99.90;;;;;;5049283;28;20509;-81
2021/12/28 11:24:39;;;;;;;34.17;13.95;;;6.90;99.90;;;;;;5032805;28;20053;-80
2021/12/28 11:27:06;;;;;;;36.45;17.10;;;6.80;99.90;;;;;;5032647;28;20053;-80
2021/12/28 11:29:35;;;;;;;37.42;16.33;;;6.90;99.90;;;;;;5032650;28;20329;-80
2021/12/28 11:32:04;;;;;;;37.85;16.52;;;6.80;99.90;;;;;;5032512;28;20099;-85
2021/12/28 11:34:36;;;;;;;33.40;14.95;;;6.80;99.90;;;;;;5032741;28;20466;-84
2021/12/28 11:37:02;;;;;;;30.33;15.82;;;6.80;99.90;;;;;;5032362;28;20183;-80
2021/12/28 11:39:31;;;;;;;34.08;15.82;;;6.80;99.90;;;;;;5032533;28;20049;-80
2021/12/28 11:41:58;;;;;;;30.42;14.65;;;6.90;99.90;;;;;;5015926;28;20084;-85
2021/12/28 11:44:25;;;;;;;31.05;15.18;;;6.90;99.90;;;;;;5048659;28;20049;-84
2021/12/28 11:46:53;;;;;;;29.35;14.27;;;6.90;99.90;;;;;;5032246;28;20080;-85
2021/12/28 11:49:24;;;;;;;25.13;14.63;;;6.90;99.90;;;;;;5048858;28;20045;-85
2021/12/28 11:51:52;;;;;;;24.25;13.85;;;6.90;99.90;;;;;;5048531;28;20049;-85
2021/12/28 11:54:19;;;;;;;38.85;16.85;;;6.90;99.90;;;;;;5031741;28;20115;-85
2021/12/28 11:56:50;;;;;;;22.20;13.88;;;6.90;99.90;;;;;;5032291;28;20053;-81
2021/12/28 11:59:17;;;;;;;22.27;12.82;;;6.90;99.90;;;;;;5015979;28;20042;-84
2021/12/28 12:01:45;;;;;;;24.17;13.15;;;6.90;99.90;;;;;;5032015;28;20044;-85
2021/12/28 12:04:29;;;;;;;21.98;12.30;;;6.90;99.90;;;;;;5031910;28;20084;-85
2021/12/28 12:07:01;;;;;;;25.33;14.07;;;7.00;99.90;;;;;;5031688;28;20049;-85
2021/12/28 12:09:28;;;;;;;24.75;14.82;;;7.00;99.90;;;;;;5031918;28;20060;-85
2021/12/28 12:12:15;;;;;;;32.95;16.83;;;7.00;99.90;;;;;;5032241;28;20523;-85
2021/12/28 12:14:50;;;;;;;28.80;16.67;;;6.90;99.90;;;;;;4999479;28;20437;-81
2021/12/28 12:17:28;;;;;;;28.60;15.60;;;7.00;99.90;;;;;;5032019;28;20099;-85
2021/12/28 12:19:59;;;;;;;23.27;13.60;;;7.00;99.90;;;;;;5031754;28;20103;-85
2021/12/28 12:22:31;;;;;;;24.10;14.15;;;7.00;99.90;;;;;;5031752;28;20053;-80
2021/12/28 12:24:58;;;;;;;25.60;13.85;;;7.00;99.90;;;;;;5015323;28;20136;-85
2021/12/28 12:27:45;;;;;;;27.83;15.55;;;7.00;99.90;;;;;;5048146;28;20090;-81
2021/12/28 12:30:17;;;;;;;28.40;14.95;;;7.00;99.90;;;;;;5015198;28;20045;-85
2021/12/28 12:32:58;;;;;;;32.45;16.77;;;7.10;99.90;;;;;;5015106;28;20049;-85